createdAt,value
2018-12-29T00:00:44.398Z,-427.39
2018-12-29T00:01:44.480Z,-420.29
2018-12-29T00:02:44.600Z,-418.08
2018-12-29T00:03:44.685Z,-425.18
2018-12-29T00:04:44.803Z,-420.93
2018-12-29T00:05:44.897Z,-425.95
2018-12-29T00:06:44.987Z,-425.40
2018-12-29T00:07:45.104Z,-424.01
2018-12-29T00:08:45.211Z,-422.03
2018-12-29T00:09:45.311Z,-419.96
2018-12-29T00:10:45.389Z,-423.25
2018-12-29T00:11:45.493Z,-419.18
2018-12-29T00:12:45.619Z,-426.88
2018-12-29T00:13:45.818Z,-419.21
2018-12-29T00:14:45.845Z,-427.45
2018-12-29T00:15:45.925Z,-426.18
2018-12-29T00:16:46.023Z,-424.97
2018-12-29T00:17:46.139Z,-420.66
2018-12-29T00:18:46.222Z,-427.57
2018-12-29T00:19:46.349Z,-419.21
2018-12-29T00:20:46.442Z,-422.86
2018-12-29T00:21:46.640Z,-421.44
2018-12-29T00:22:46.644Z,-425.36
2018-12-29T00:23:46.725Z,-423.63
2018-12-29T00:24:46.848Z,-422.14
2018-12-29T00:25:47.188Z,-428.56
2018-12-29T00:26:47.012Z,-426.11
2018-12-29T00:27:47.133Z,-423.20
2018-12-29T00:28:47.232Z,-427.02
2018-12-29T00:29:47.429Z,-427.46
2018-12-29T00:30:47.433Z,-425.68
2018-12-29T00:31:47.520Z,-427.53
2018-12-29T00:32:47.624Z,-422.96
2018-12-29T00:33:47.709Z,-426.74
2018-12-29T00:34:47.837Z,-422.82
2018-12-29T00:35:47.944Z,-424.30
2018-12-29T00:36:48.026Z,-423.08
2018-12-29T00:37:48.160Z,-426.40
2018-12-29T00:38:48.191Z,-427.37
2018-12-29T00:39:48.330Z,-429.60
2018-12-29T00:40:48.435Z,-425.89
2018-12-29T00:41:48.513Z,-424.20
2018-12-29T00:42:48.615Z,-426.58
2018-12-29T00:43:48.736Z,-425.37
2018-12-29T00:44:48.865Z,-422.50
2018-12-29T00:45:48.973Z,-428.54
2018-12-29T00:46:49.116Z,-425.43
2018-12-29T00:47:49.148Z,-422.62
2018-12-29T00:48:49.267Z,-424.10
2018-12-29T00:49:49.393Z,-427.88
2018-12-29T00:50:49.488Z,-425.47
2018-12-29T00:51:49.553Z,-431.82
2018-12-29T00:52:49.669Z,-425.91
2018-12-29T00:53:49.816Z,-424.71
2018-12-29T00:54:50.039Z,-427.00
2018-12-29T00:55:49.980Z,-428.73
2018-12-29T00:56:50.063Z,-428.99
2018-12-29T00:57:50.177Z,-429.83
2018-12-29T00:58:50.297Z,-431.78
2018-12-29T00:59:50.402Z,-428.57
2018-12-29T01:00:50.495Z,-427.36
2018-12-29T01:01:50.577Z,-423.61
2018-12-29T01:02:50.767Z,-431.28
2018-12-29T01:03:50.797Z,-427.65
2018-12-29T01:04:50.887Z,-430.14
2018-12-29T01:05:51.033Z,-424.80
2018-12-29T01:06:51.086Z,-432.18
2018-12-29T01:07:51.164Z,-430.80
2018-12-29T01:08:51.306Z,-429.33
2018-12-29T01:09:51.391Z,-425.31
2018-12-29T01:10:51.607Z,-424.75
2018-12-29T01:11:51.588Z,-420.27
2018-12-29T01:12:51.684Z,-425.06
2018-12-29T01:13:51.784Z,-429.65
2018-12-29T01:14:51.911Z,-425.33
2018-12-29T01:15:52.002Z,-431.54
2018-12-29T01:16:52.085Z,-424.78
2018-12-29T01:17:52.188Z,-429.41
2018-12-29T01:18:52.353Z,-429.17
2018-12-29T01:19:52.377Z,-426.22
2018-12-29T01:20:52.513Z,-430.74
2018-12-29T01:21:52.586Z,-425.83
2018-12-29T01:22:52.686Z,-428.45
2018-12-29T01:23:52.802Z,-432.51
2018-12-29T01:24:52.892Z,-429.30
2018-12-29T01:25:53.037Z,-424.44
2018-12-29T01:26:53.140Z,-430.98
2018-12-29T01:27:53.243Z,-422.41
2018-12-29T01:28:53.319Z,-451.77
2018-12-29T01:29:53.399Z,-453.35
2018-12-29T01:30:53.544Z,-452.83
2018-12-29T01:31:53.583Z,-449.37
2018-12-29T01:32:53.701Z,-450.71
2018-12-29T01:33:53.817Z,-453.00
2018-12-29T01:34:53.911Z,-448.72
2018-12-29T01:35:54.175Z,-452.68
2018-12-29T01:36:54.089Z,-454.05
2018-12-29T01:37:54.202Z,-450.91
2018-12-29T01:38:54.319Z,-451.57
2018-12-29T01:39:54.403Z,-452.76
2018-12-29T01:40:54.541Z,-449.14
2018-12-29T01:41:54.600Z,-450.63
2018-12-29T01:42:54.681Z,-453.78
2018-12-29T01:43:54.977Z,-454.03
2018-12-29T01:44:54.908Z,-452.71
2018-12-29T01:45:55.033Z,-455.69
2018-12-29T01:46:55.112Z,-451.59
2018-12-29T01:47:55.196Z,-455.32
2018-12-29T01:48:55.314Z,-452.79
2018-12-29T01:49:55.410Z,-450.97
2018-12-29T01:50:55.540Z,-455.96
2018-12-29T01:51:55.747Z,-448.25
2018-12-29T01:52:55.716Z,-449.83
2018-12-29T01:53:55.841Z,-454.49
2018-12-29T01:54:55.907Z,-451.28
2018-12-29T01:55:56.050Z,-454.85
2018-12-29T01:56:56.143Z,-452.25
2018-12-29T01:57:56.226Z,-454.98
2018-12-29T01:58:56.345Z,-452.36
2018-12-29T01:59:56.477Z,-451.51
2018-12-29T02:00:56.495Z,-451.62
2018-12-29T02:01:56.629Z,-454.13
2018-12-29T02:02:56.965Z,-455.55
2018-12-29T02:03:56.844Z,-455.42
2018-12-29T02:04:56.925Z,-452.15
2018-12-29T02:05:57.052Z,-454.60
2018-12-29T02:06:57.144Z,-450.93
2018-12-29T02:07:57.233Z,-453.49
2018-12-29T02:08:57.642Z,-452.59
2018-12-29T02:09:57.632Z,-451.19
2018-12-29T02:10:57.758Z,-456.82
2018-12-29T02:11:57.849Z,-451.13
2018-12-29T02:12:57.915Z,-451.52
2018-12-29T02:13:58.049Z,-453.19
2018-12-29T02:14:58.131Z,-455.88
2018-12-29T02:15:58.260Z,-451.35
2018-12-29T02:16:58.465Z,-451.00
2018-12-29T02:17:58.413Z,-454.48
2018-12-29T02:18:58.547Z,-451.49
2018-12-29T02:19:58.626Z,-454.36
2018-12-29T02:20:58.747Z,-454.95
2018-12-29T02:21:58.842Z,-451.37
2018-12-29T02:22:58.931Z,-451.84
2018-12-29T02:23:59.032Z,-448.37
2018-12-29T02:24:59.260Z,-454.86
2018-12-29T02:25:59.366Z,-455.34
2018-12-29T02:26:59.469Z,-445.13
2018-12-29T02:27:59.639Z,-452.17
2018-12-29T02:28:59.681Z,-448.99
2018-12-29T02:29:59.756Z,-449.71
2018-12-29T02:30:59.904Z,-451.04
2018-12-29T02:32:00.004Z,-451.01
2018-12-29T02:33:00.126Z,-453.12
2018-12-29T02:34:00.275Z,-454.89
2018-12-29T02:35:00.295Z,-452.72
2018-12-29T02:36:00.414Z,-454.22
2018-12-29T02:37:00.524Z,-453.18
2018-12-29T02:38:00.619Z,-452.59
2018-12-29T02:39:00.741Z,-447.71
2018-12-29T02:40:00.827Z,-452.30
2018-12-29T02:41:00.969Z,-451.20
2018-12-29T02:42:01.024Z,-449.57
2018-12-29T02:43:01.137Z,-451.05
2018-12-29T02:44:01.273Z,-455.25
2018-12-29T02:45:01.345Z,-450.82
2018-12-29T02:46:01.476Z,-451.36
2018-12-29T02:47:01.585Z,-451.96
2018-12-29T02:48:01.652Z,-453.19
2018-12-29T02:49:01.833Z,-450.60
2018-12-29T02:50:01.975Z,-455.62
2018-12-29T02:51:02.000Z,-453.25
2018-12-29T02:52:02.142Z,-450.18
2018-12-29T02:53:02.199Z,-456.20
2018-12-29T02:54:02.343Z,-453.04
2018-12-29T02:55:02.427Z,-449.85
2018-12-29T02:56:02.545Z,-456.43
2018-12-29T02:57:02.668Z,-453.82
2018-12-29T02:58:03.036Z,-454.52
2018-12-29T02:59:02.830Z,-454.09
2018-12-29T03:00:02.878Z,-452.95
2018-12-29T03:01:02.996Z,-452.41
2018-12-29T03:02:03.098Z,-451.68
2018-12-29T03:03:03.193Z,-453.99
2018-12-29T03:04:03.334Z,-450.85
2018-12-29T03:05:03.396Z,-454.66
2018-12-29T03:06:03.609Z,-454.44
2018-12-29T03:07:03.703Z,-451.92
2018-12-29T03:08:03.761Z,-453.05
2018-12-29T03:09:03.870Z,-452.98
2018-12-29T03:10:04.008Z,-456.29
2018-12-29T03:11:04.120Z,-452.35
2018-12-29T03:12:04.256Z,-452.57
2018-12-29T03:13:04.335Z,-451.63
2018-12-29T03:14:04.485Z,-450.57
2018-12-29T03:15:04.526Z,-452.02
2018-12-29T03:16:04.668Z,-450.01
2018-12-29T03:17:04.778Z,-452.45
2018-12-29T03:18:04.950Z,-452.61
2018-12-29T03:19:04.999Z,-451.73
2018-12-29T03:20:05.095Z,-452.92
2018-12-29T03:21:05.168Z,-450.98
2018-12-29T03:22:05.364Z,-452.90
2018-12-29T03:23:05.420Z,-452.07
2018-12-29T03:24:05.541Z,-451.52
2018-12-29T03:25:05.668Z,-455.92
2018-12-29T03:26:05.746Z,-449.96
2018-12-29T03:27:05.856Z,-453.66
2018-12-29T03:28:05.961Z,-453.20
2018-12-29T03:29:06.087Z,-454.45
2018-12-29T03:30:06.254Z,-451.44
2018-12-29T03:31:06.425Z,-455.18
2018-12-29T03:32:06.446Z,-454.78
2018-12-29T03:33:06.527Z,-451.81
2018-12-29T03:34:06.647Z,-452.95
2018-12-29T03:35:06.763Z,-457.10
2018-12-29T03:36:06.861Z,-449.78
2018-12-29T03:37:07.009Z,-451.41
2018-12-29T03:38:07.078Z,-453.21
2018-12-29T03:39:07.262Z,-451.90
2018-12-29T03:40:07.301Z,-452.57
2018-12-29T03:41:07.390Z,-449.70
2018-12-29T03:42:07.788Z,-449.92
2018-12-29T03:43:07.615Z,-450.37
2018-12-29T03:44:07.706Z,-453.71
2018-12-29T03:45:07.849Z,-451.40
2018-12-29T03:46:07.940Z,-449.17
2018-12-29T03:47:08.154Z,-448.65
2018-12-29T03:48:08.185Z,-452.58
2018-12-29T03:49:08.242Z,-451.26
2018-12-29T03:50:08.352Z,-451.72
2018-12-29T03:51:08.461Z,-449.66
2018-12-29T03:52:08.608Z,-450.09
2018-12-29T03:53:08.674Z,-451.42
2018-12-29T03:54:08.782Z,-449.16
2018-12-29T03:55:08.943Z,-452.17
2018-12-29T03:56:08.962Z,-453.16
2018-12-29T03:57:09.133Z,-450.32
2018-12-29T03:58:09.208Z,-453.51
2018-12-29T03:59:09.307Z,-453.45
2018-12-29T04:00:09.419Z,-449.90
2018-12-29T04:01:09.514Z,-450.62
2018-12-29T04:02:09.655Z,-453.60
2018-12-29T04:03:09.767Z,-452.40
2018-12-29T04:04:09.878Z,-451.54
2018-12-29T04:05:09.986Z,-449.87
2018-12-29T04:06:10.076Z,-449.49
2018-12-29T04:07:10.204Z,-452.59
2018-12-29T04:08:10.268Z,-453.39
2018-12-29T04:09:10.392Z,-453.59
2018-12-29T04:10:10.517Z,-450.62
2018-12-29T04:11:10.640Z,-449.78
2018-12-29T04:12:10.816Z,-452.86
2018-12-29T04:13:10.820Z,-449.24
2018-12-29T04:14:10.945Z,-451.33
2018-12-29T04:15:11.069Z,-448.34
2018-12-29T04:16:11.171Z,-452.95
2018-12-29T04:17:11.265Z,-447.81
2018-12-29T04:18:11.389Z,-449.97
2018-12-29T04:19:11.480Z,-447.22
2018-12-29T04:20:11.697Z,-453.02
2018-12-29T04:21:11.749Z,-448.48
2018-12-29T04:22:11.834Z,-451.51
2018-12-29T04:23:11.985Z,-450.49
2018-12-29T04:24:12.034Z,-451.91
2018-12-29T04:25:12.175Z,-450.38
2018-12-29T04:26:12.281Z,-450.18
2018-12-29T04:27:12.387Z,-451.54
2018-12-29T04:28:12.621Z,-451.61
2018-12-29T04:29:12.586Z,-453.07
2018-12-29T04:30:12.696Z,-446.75
2018-12-29T04:31:12.804Z,-450.27
2018-12-29T04:32:12.919Z,-452.64
2018-12-29T04:33:13.038Z,-448.46
2018-12-29T04:34:13.127Z,-449.37
2018-12-29T04:35:13.250Z,-451.35
2018-12-29T04:36:13.378Z,-448.96
2018-12-29T04:37:13.438Z,-446.94
2018-12-29T04:38:13.576Z,-447.43
2018-12-29T04:39:13.665Z,-449.56
2018-12-29T04:40:13.781Z,-446.96
2018-12-29T04:41:13.876Z,-447.87
2018-12-29T04:42:14.015Z,-450.84
2018-12-29T04:43:14.119Z,-452.45
2018-12-29T04:44:14.267Z,-450.95
2018-12-29T04:45:14.372Z,-448.08
2018-12-29T04:46:14.426Z,-448.72
2018-12-29T04:47:14.530Z,-449.19
2018-12-29T04:48:15.018Z,-447.36
2018-12-29T04:49:14.741Z,-449.94
2018-12-29T04:50:14.896Z,-448.88
2018-12-29T04:51:14.977Z,-447.28
2018-12-29T04:52:15.099Z,-447.81
2018-12-29T04:53:15.312Z,-446.14
2018-12-29T04:54:15.296Z,-446.37
2018-12-29T04:55:15.418Z,-449.98
2018-12-29T04:56:15.510Z,-445.17
2018-12-29T04:57:15.617Z,-450.43
2018-12-29T04:58:16.041Z,-449.12
2018-12-29T04:59:15.818Z,-448.17
2018-12-29T05:00:15.937Z,-449.59
2018-12-29T05:01:16.151Z,-448.28
2018-12-29T05:02:16.152Z,-447.55
2018-12-29T05:03:16.308Z,-446.14
2018-12-29T05:04:16.358Z,-453.08
2018-12-29T05:05:16.497Z,-447.62
2018-12-29T05:06:16.604Z,-449.97
2018-12-29T05:07:16.713Z,-446.45
2018-12-29T05:08:16.965Z,-423.79
2018-12-29T05:09:16.989Z,-421.40
2018-12-29T05:10:17.016Z,-423.54
2018-12-29T05:11:17.132Z,-426.77
2018-12-29T05:12:17.255Z,-427.85
2018-12-29T05:13:17.404Z,-418.80
2018-12-29T05:14:17.497Z,-418.71
2018-12-29T05:15:17.579Z,-424.44
2018-12-29T05:16:17.685Z,-421.08
2018-12-29T05:17:17.834Z,-420.93
2018-12-29T05:18:17.898Z,-421.70
2018-12-29T05:19:18.016Z,-424.67
2018-12-29T05:20:18.098Z,-421.16
2018-12-29T05:21:18.463Z,-419.20
2018-12-29T05:22:18.339Z,-419.54
2018-12-29T05:23:18.450Z,-422.75
2018-12-29T05:24:18.660Z,-423.23
2018-12-29T05:25:18.722Z,-418.81
2018-12-29T05:26:18.859Z,-426.66
2018-12-29T05:27:18.916Z,-418.45
2018-12-29T05:28:19.023Z,-425.79
2018-12-29T05:29:19.137Z,-424.50
2018-12-29T05:30:19.236Z,-419.70
2018-12-29T05:31:19.362Z,-421.18
2018-12-29T05:32:19.450Z,-426.54
2018-12-29T05:33:19.598Z,-416.69
2018-12-29T05:34:19.802Z,-417.27
2018-12-29T05:35:19.778Z,-417.51
2018-12-29T05:36:19.894Z,-420.85
2018-12-29T05:37:19.991Z,-421.44
2018-12-29T05:38:20.116Z,-423.94
2018-12-29T05:39:20.224Z,-420.33
2018-12-29T05:40:20.292Z,-423.41
2018-12-29T05:41:20.433Z,-425.22
2018-12-29T05:42:20.645Z,-419.85
2018-12-29T05:43:20.643Z,-417.67
2018-12-29T05:44:20.752Z,-417.49
2018-12-29T05:45:20.828Z,-417.21
2018-12-29T05:46:20.972Z,-417.21
2018-12-29T05:47:21.059Z,-422.80
2018-12-29T05:48:21.183Z,-419.11
2018-12-29T05:49:21.276Z,-424.25
2018-12-29T05:50:21.432Z,-424.00
2018-12-29T05:51:21.474Z,-417.92
2018-12-29T05:52:21.585Z,-415.87
2018-12-29T05:53:21.709Z,-419.83
2018-12-29T05:54:21.818Z,-420.92
2018-12-29T05:55:21.907Z,-417.85
2018-12-29T05:56:22.123Z,-419.48
2018-12-29T05:57:22.123Z,-425.44
2018-12-29T05:58:22.288Z,-421.86
2018-12-29T05:59:22.321Z,-421.23
2018-12-29T06:00:22.431Z,-425.90
2018-12-29T06:01:22.558Z,-423.60
2018-12-29T06:02:22.655Z,-419.95
2018-12-29T06:03:22.781Z,-420.50
2018-12-29T06:04:22.869Z,-424.59
2018-12-29T06:05:22.979Z,-424.67
2018-12-29T06:06:23.116Z,-418.52
2018-12-29T06:07:23.263Z,-423.65
2018-12-29T06:08:23.299Z,-425.54
2018-12-29T06:09:23.414Z,-425.40
2018-12-29T06:10:23.513Z,-423.52
2018-12-29T06:11:23.629Z,-425.79
2018-12-29T06:12:23.726Z,-419.86
2018-12-29T06:13:23.853Z,-422.83
2018-12-29T06:14:23.974Z,-424.17
2018-12-29T06:15:24.175Z,-427.06
2018-12-29T06:16:27.699Z,-416.86
2018-12-29T06:17:24.262Z,-427.10
2018-12-29T06:18:24.385Z,-423.48
2018-12-29T06:19:24.498Z,-421.29
2018-12-29T06:20:24.562Z,-422.14
2018-12-29T06:21:24.709Z,-418.08
2018-12-29T06:22:24.845Z,-423.83
2018-12-29T06:23:25.000Z,-418.56
2018-12-29T06:24:25.028Z,-423.11
2018-12-29T06:25:25.115Z,-416.82
2018-12-29T06:26:25.258Z,-421.21
2018-12-29T06:27:25.391Z,-423.70
2018-12-29T06:28:25.472Z,-421.92
2018-12-29T06:29:25.642Z,-419.59
2018-12-29T06:30:25.707Z,-420.40
2018-12-29T06:31:25.876Z,-423.00
2018-12-29T06:32:25.915Z,-424.26
2018-12-29T06:33:26.019Z,-417.57
2018-12-29T06:34:26.144Z,-419.74
2018-12-29T06:35:26.233Z,-424.82
2018-12-29T06:36:26.361Z,-416.58
2018-12-29T06:37:26.473Z,-418.14
2018-12-29T06:38:26.534Z,-418.93
2018-12-29T06:39:26.718Z,-415.16
2018-12-29T06:40:26.772Z,-418.09
2018-12-29T06:41:26.911Z,-416.26
2018-12-29T06:42:27.019Z,-425.28
2018-12-29T06:43:27.112Z,-420.92
2018-12-29T06:44:27.208Z,-420.28
2018-12-29T06:45:27.377Z,-423.39
2018-12-29T06:46:27.435Z,-418.91
2018-12-29T06:47:27.584Z,-421.61
2018-12-29T06:48:27.749Z,-414.43
2018-12-29T06:49:27.743Z,-420.62
2018-12-29T06:50:27.861Z,-421.26
2018-12-29T06:51:27.982Z,-413.64
2018-12-29T06:52:28.084Z,-414.68
2018-12-29T06:53:28.182Z,-417.87
2018-12-29T06:54:28.309Z,-423.96
2018-12-29T06:55:28.384Z,-422.39
2018-12-29T06:56:28.595Z,-418.15
2018-12-29T06:57:28.621Z,-421.67
2018-12-29T06:58:28.727Z,-416.22
2018-12-29T06:59:29.081Z,-424.14
2018-12-29T07:00:28.931Z,-419.05
2018-12-29T07:01:32.806Z,-420.00
2018-12-29T07:02:29.169Z,-421.05
2018-12-29T07:03:29.310Z,-419.75
2018-12-29T07:04:29.521Z,-421.38
2018-12-29T07:05:29.492Z,-425.46
2018-12-29T07:06:29.618Z,-418.50
2018-12-29T07:07:29.698Z,-418.32
2018-12-29T07:08:29.821Z,-418.35
2018-12-29T07:09:29.946Z,-418.57
2018-12-29T07:10:30.035Z,-422.06
2018-12-29T07:11:30.163Z,-420.50
2018-12-29T07:12:30.287Z,-417.66
2018-12-29T07:13:30.325Z,-416.84
2018-12-29T07:14:30.471Z,-419.84
2018-12-29T07:15:30.563Z,-418.66
2018-12-29T07:16:30.713Z,-416.99
2018-12-29T07:17:30.779Z,-416.93
2018-12-29T07:18:30.909Z,-416.90
2018-12-29T07:19:30.997Z,-417.94
2018-12-29T07:20:31.134Z,-419.77
2018-12-29T07:21:31.219Z,-417.44
2018-12-29T07:22:31.324Z,-417.89
2018-12-29T07:23:31.459Z,-417.92
2018-12-29T07:24:31.565Z,-417.28
2018-12-29T07:25:31.705Z,-423.38
2018-12-29T07:26:31.760Z,-422.56
2018-12-29T07:27:31.880Z,-421.42
2018-12-29T07:28:32.025Z,-421.91
2018-12-29T07:29:38.079Z,-420.38
2018-12-29T07:30:33.177Z,-443.72
2018-12-29T07:31:32.323Z,-419.40
2018-12-29T07:32:32.417Z,-442.13
2018-12-29T07:33:32.556Z,-423.19
2018-12-29T07:34:32.657Z,-423.35
2018-12-29T07:35:32.809Z,-447.87
2018-12-29T07:36:32.874Z,-445.60
2018-12-29T07:37:33.077Z,-444.82
2018-12-29T07:38:33.099Z,-421.55
2018-12-29T07:39:33.191Z,-444.87
2018-12-29T07:40:33.284Z,-420.75
2018-12-29T07:41:33.395Z,-443.65
2018-12-29T07:42:33.487Z,-420.23
2018-12-29T07:43:33.642Z,-443.86
2018-12-29T07:44:33.743Z,-445.57
2018-12-29T07:45:33.888Z,-442.99
2018-12-29T07:46:33.923Z,-445.23
2018-12-29T07:47:34.030Z,-443.24
2018-12-29T07:48:34.171Z,-442.71
2018-12-29T07:49:34.285Z,-444.08
2018-12-29T07:50:34.375Z,-446.09
2018-12-29T07:51:34.485Z,-447.85
2018-12-29T07:52:34.622Z,-417.78
2018-12-29T07:53:34.756Z,-443.94
2018-12-29T07:54:34.801Z,-443.43
2018-12-29T07:55:34.915Z,-445.13
2018-12-29T07:56:35.023Z,-446.92
2018-12-29T07:57:35.174Z,-442.07
2018-12-29T07:58:35.234Z,-445.69
2018-12-29T07:59:35.358Z,-442.23
2018-12-29T08:00:35.432Z,-420.62
2018-12-29T08:01:35.598Z,-446.79
2018-12-29T08:02:35.724Z,-420.94
2018-12-29T08:03:35.808Z,-442.85
2018-12-29T08:04:35.921Z,-423.86
2018-12-29T08:05:36.007Z,-443.32
2018-12-29T08:06:36.101Z,-418.53
2018-12-29T08:07:36.264Z,-445.51
2018-12-29T08:08:36.333Z,-421.26
2018-12-29T08:09:36.466Z,-444.35
2018-12-29T08:10:36.655Z,-416.88
2018-12-29T08:11:36.631Z,-443.46
2018-12-29T08:12:36.782Z,-419.75
2018-12-29T08:13:36.875Z,-422.82
2018-12-29T08:14:36.987Z,-445.26
2018-12-29T08:15:37.078Z,-445.03
2018-12-29T08:16:37.186Z,-444.11
2018-12-29T08:17:37.292Z,-446.49
2018-12-29T08:18:37.495Z,-448.06
2018-12-29T08:19:37.520Z,-444.18
2018-12-29T08:20:37.606Z,-445.22
2018-12-29T08:21:37.723Z,-442.58
2018-12-29T08:22:37.832Z,-444.70
2018-12-29T08:23:37.949Z,-439.18
2018-12-29T08:24:38.092Z,-444.46
2018-12-29T08:25:38.164Z,-444.68
2018-12-29T08:26:38.346Z,-445.33
2018-12-29T08:27:38.387Z,-441.43
2018-12-29T08:28:38.477Z,-443.46
2018-12-29T08:29:38.606Z,-443.15
2018-12-29T08:30:38.712Z,-445.26
2018-12-29T08:31:38.820Z,-443.92
2018-12-29T08:32:38.949Z,-421.57
2018-12-29T08:33:39.065Z,-444.40
2018-12-29T08:34:39.180Z,-420.73
2018-12-29T08:35:39.231Z,-444.94
2018-12-29T08:36:39.371Z,-424.75
2018-12-29T08:37:39.710Z,-445.78
2018-12-29T08:38:39.597Z,-442.75
2018-12-29T08:39:39.696Z,-442.09
2018-12-29T08:40:39.794Z,-417.92
2018-12-29T08:41:39.891Z,-439.98
2018-12-29T08:42:40.079Z,-415.69
2018-12-29T08:43:40.199Z,-418.10
2018-12-29T08:44:40.252Z,-441.84
2018-12-29T08:45:40.358Z,-443.91
2018-12-29T08:46:40.466Z,-442.00
2018-12-29T08:47:40.576Z,-440.32
2018-12-29T08:48:40.695Z,-442.68
2018-12-29T08:49:41.341Z,-442.37
2018-12-29T08:50:40.942Z,-441.05
2018-12-29T08:51:41.148Z,-442.29
2018-12-29T08:52:41.133Z,-441.80
2018-12-29T08:53:41.235Z,-445.50
2018-12-29T08:54:41.384Z,-445.37
2018-12-29T08:55:41.469Z,-443.25
2018-12-29T08:56:41.581Z,-446.25
2018-12-29T08:57:42.607Z,-446.31
2018-12-29T08:58:41.768Z,-443.80
2018-12-29T08:59:42.044Z,-442.63
2018-12-29T09:00:42.022Z,-445.46
2018-12-29T09:01:42.118Z,-444.42
2018-12-29T09:02:42.243Z,-445.41
2018-12-29T09:03:42.347Z,-442.75
2018-12-29T09:04:42.443Z,-445.83
2018-12-29T09:05:42.582Z,-442.00
2018-12-29T09:06:42.677Z,-444.07
2018-12-29T09:07:42.839Z,-443.95
2018-12-29T09:08:42.894Z,-440.92
2018-12-29T09:09:42.967Z,-441.53
2018-12-29T09:10:43.110Z,-444.10
2018-12-29T09:11:43.201Z,-443.26
2018-12-29T09:12:43.327Z,-414.11
2018-12-29T09:13:43.430Z,-443.00
2018-12-29T09:14:43.523Z,-439.28
2018-12-29T09:15:43.669Z,-442.79
2018-12-29T09:16:43.721Z,-443.67
2018-12-29T09:17:43.878Z,-445.60
2018-12-29T09:18:49.714Z,-442.73
2018-12-29T09:19:45.059Z,-443.08
2018-12-29T09:20:44.198Z,-445.71
2018-12-29T09:21:44.284Z,-442.21
2018-12-29T09:22:44.386Z,-442.98
2018-12-29T09:23:44.574Z,-442.17
2018-12-29T09:24:44.651Z,-442.03
2018-12-29T09:25:44.746Z,-439.08
2018-12-29T09:26:44.821Z,-444.07
2018-12-29T09:27:44.936Z,-439.59
2018-12-29T09:28:45.042Z,-442.54
2018-12-29T09:29:45.989Z,-441.79
2018-12-29T09:30:45.300Z,-447.14
2018-12-29T09:31:45.370Z,-441.61
2018-12-29T09:32:45.615Z,-440.42
2018-12-29T09:33:45.576Z,-441.18
2018-12-29T09:34:45.719Z,-442.19
2018-12-29T09:35:45.808Z,-443.06
2018-12-29T09:36:45.898Z,-445.12
2018-12-29T09:37:46.019Z,-440.67
2018-12-29T09:38:46.107Z,-440.46
2018-12-29T09:39:46.228Z,-443.10
2018-12-29T09:40:46.472Z,-440.52
2018-12-29T09:41:46.433Z,-444.08
2018-12-29T09:42:46.561Z,-441.53
2018-12-29T09:43:46.652Z,-440.67
2018-12-29T09:44:46.765Z,-440.81
2018-12-29T09:45:46.881Z,-441.64
2018-12-29T09:46:46.972Z,-444.61
2018-12-29T09:47:47.096Z,-439.90
2018-12-29T09:48:47.208Z,-442.98
2018-12-29T09:49:47.283Z,-441.14
2018-12-29T09:50:47.381Z,-443.90
2018-12-29T09:51:47.496Z,-441.79
2018-12-29T09:52:47.602Z,-442.07
2018-12-29T09:53:47.712Z,-442.26
2018-12-29T09:54:47.846Z,-443.92
2018-12-29T09:55:47.950Z,-442.44
2018-12-29T09:56:48.107Z,-443.40
2018-12-29T09:57:48.118Z,-443.72
2018-12-29T09:58:48.249Z,-444.57
2018-12-29T09:59:48.370Z,-444.00
2018-12-29T10:00:48.488Z,-438.85
2018-12-29T10:01:48.592Z,-446.78
2018-12-29T10:02:48.678Z,-442.03
2018-12-29T10:03:48.816Z,-440.74
2018-12-29T10:04:48.965Z,-445.69
2018-12-29T10:05:49.112Z,-443.42
2018-12-29T10:06:49.174Z,-443.25
2018-12-29T10:07:49.246Z,-446.98
2018-12-29T10:08:49.368Z,-443.42
2018-12-29T10:09:49.501Z,-444.35
2018-12-29T10:10:49.596Z,-444.92
2018-12-29T10:11:49.693Z,-442.92
2018-12-29T10:12:49.801Z,-445.71
2018-12-29T10:13:50.246Z,-440.48
2018-12-29T10:14:50.024Z,-439.74
2018-12-29T10:15:50.140Z,-444.73
2018-12-29T10:16:50.233Z,-440.95
2018-12-29T10:17:50.358Z,-443.88
2018-12-29T10:18:50.457Z,-576.69
2018-12-29T10:19:50.555Z,-442.80
2018-12-29T10:20:50.676Z,-443.58
2018-12-29T10:21:50.877Z,-443.34
2018-12-29T10:22:50.884Z,-441.19
2018-12-29T10:23:51.013Z,-446.56
2018-12-29T10:24:51.170Z,-444.74
2018-12-29T10:25:51.228Z,-444.34
2018-12-29T10:26:51.334Z,-446.62
2018-12-29T10:27:51.441Z,-445.90
2018-12-29T10:28:51.571Z,-446.30
2018-12-29T10:29:51.770Z,-444.57
2018-12-29T10:30:51.750Z,-448.11
2018-12-29T10:31:51.855Z,-445.37
2018-12-29T10:32:51.981Z,-445.19
2018-12-29T10:33:52.104Z,-446.11
2018-12-29T10:34:52.205Z,-445.43
2018-12-29T10:35:52.321Z,-446.54
2018-12-29T10:36:52.412Z,-444.26
2018-12-29T10:37:52.545Z,-441.89
2018-12-29T10:38:52.621Z,-443.08
2018-12-29T10:39:52.717Z,-446.65
2018-12-29T10:40:52.853Z,-446.89
2018-12-29T10:41:52.935Z,-442.67
2018-12-29T10:42:53.073Z,-442.88
2018-12-29T10:43:53.151Z,-443.58
2018-12-29T10:44:53.269Z,-444.94
2018-12-29T10:45:53.423Z,-444.94
2018-12-29T10:46:53.583Z,-444.02
2018-12-29T10:47:53.611Z,-442.43
2018-12-29T10:48:53.712Z,-447.59
2018-12-29T10:49:53.811Z,-442.40
2018-12-29T10:50:53.936Z,-447.14
2018-12-29T10:51:54.028Z,-443.41
2018-12-29T10:52:54.127Z,-443.27
2018-12-29T10:53:54.277Z,-446.46
2018-12-29T10:54:54.464Z,-443.20
2018-12-29T10:55:54.456Z,-440.00
2018-12-29T10:56:54.562Z,-447.04
2018-12-29T10:57:54.668Z,-444.69
2018-12-29T10:58:54.821Z,-442.31
2018-12-29T10:59:54.865Z,-443.93
2018-12-29T11:00:55.021Z,-441.70
2018-12-29T11:01:55.144Z,-445.86
2018-12-29T11:02:55.377Z,-443.70
2018-12-29T11:03:55.363Z,-447.74
2018-12-29T11:04:55.438Z,-442.71
2018-12-29T11:05:55.560Z,-444.41
2018-12-29T11:06:55.692Z,-446.31
2018-12-29T11:07:55.797Z,-444.66
2018-12-29T11:08:55.930Z,-445.24
2018-12-29T11:09:56.016Z,-447.45
2018-12-29T11:10:56.173Z,-443.58
2018-12-29T11:11:56.213Z,-445.52
2018-12-29T11:12:56.326Z,-445.03
2018-12-29T11:13:56.481Z,-445.80
2018-12-29T11:14:56.533Z,-444.40
2018-12-29T11:15:56.647Z,-446.31
2018-12-29T11:16:56.774Z,-445.90
2018-12-29T11:17:56.846Z,-443.45
2018-12-29T11:18:57.037Z,-443.89
2018-12-29T11:19:57.057Z,-444.77
2018-12-29T11:20:57.202Z,-443.72
2018-12-29T11:21:57.309Z,-445.58
2018-12-29T11:22:57.398Z,-441.91
2018-12-29T11:23:57.507Z,-448.69
2018-12-29T11:24:57.591Z,-446.06
2018-12-29T11:25:57.751Z,-443.44
2018-12-29T11:26:57.908Z,-446.26
2018-12-29T11:27:57.999Z,-444.00
2018-12-29T11:28:58.047Z,-447.95
2018-12-29T11:29:58.147Z,-445.42
2018-12-29T11:30:58.287Z,-443.61
2018-12-29T11:31:58.399Z,-446.78
2018-12-29T11:32:58.495Z,-447.89
2018-12-29T11:33:58.627Z,-445.27
2018-12-29T11:34:58.726Z,-440.57
2018-12-29T11:35:58.922Z,-446.38
2018-12-29T11:36:58.936Z,-445.53
2018-12-29T11:37:59.100Z,-448.18
2018-12-29T11:38:59.141Z,-447.64
2018-12-29T11:39:59.903Z,-446.58
2018-12-29T11:40:59.356Z,-445.49
2018-12-29T11:41:59.472Z,-445.85
2018-12-29T11:42:59.563Z,-448.53
2018-12-29T11:43:59.767Z,-446.53
2018-12-29T11:44:59.797Z,-446.20
2018-12-29T11:45:59.885Z,-448.95
2018-12-29T11:46:59.998Z,-444.60
2018-12-29T11:48:00.105Z,-445.39
2018-12-29T11:49:01.950Z,-446.24
2018-12-29T11:50:00.559Z,-447.15
2018-12-29T11:51:00.451Z,-448.04
2018-12-29T11:52:00.620Z,-447.64
2018-12-29T11:53:00.610Z,-444.54
2018-12-29T11:54:00.755Z,-445.22
2018-12-29T11:55:00.847Z,-446.82
2018-12-29T11:56:00.954Z,-446.79
2018-12-29T11:57:01.108Z,-444.40
2018-12-29T11:58:01.170Z,-442.83
2018-12-29T11:59:01.276Z,-441.49
2018-12-29T12:00:01.399Z,-447.22
2018-12-29T12:01:01.490Z,-442.65
2018-12-29T12:02:01.649Z,-444.26
2018-12-29T12:03:01.709Z,-441.84
2018-12-29T12:04:01.839Z,-443.20
2018-12-29T12:05:01.905Z,-447.41
2018-12-29T12:06:02.032Z,-416.84
2018-12-29T12:07:02.199Z,-415.96